Time;durP1;ratioP1;P1;durP2;ratioP2;P2;SDS_P1;SDS_P2;PMS_P1;PMS_P2;Temp;Humidity;BMP_temperature;BMP_pressure;BME280_temperature;BME280_humidity;BME280_pressure;Samples;Min_cycle;Max_cycle;Signal;HPM_P1;HPM_P2
2021/08/25 00:00:43;;;;;;;19.37;11.40;;;;;;;19.00;77.53;99390.88;1703117;84;21320;-68
2021/08/25 00:03:10;;;;;;;17.07;11.10;;;;;;;18.95;77.61;99387.23;1703580;82;21770;-67
2021/08/25 00:05:36;;;;;;;19.73;11.70;;;;;;;18.94;77.72;99391.22;1702792;84;21027;-67
2021/08/25 00:08:04;;;;;;;17.12;12.23;;;;;;;18.95;77.77;99391.42;1703322;83;21043;-67
2021/08/25 00:10:32;;;;;;;23.62;11.70;;;;;;;18.95;77.82;99390.02;1703031;84;21112;-67
2021/08/25 00:13:00;;;;;;;22.30;11.80;;;;;;;18.93;78.02;99389.63;1703040;82;21016;-67
2021/08/25 00:15:29;;;;;;;17.17;12.07;;;;;;;18.94;78.18;99381.45;1702098;84;21076;-68
2021/08/25 00:17:57;;;;;;;22.65;14.60;;;;;;;18.95;78.26;99379.47;1665392;84;21048;-68
2021/08/25 00:20:24;;;;;;;33.67;15.68;;;;;;;18.94;78.30;99394.02;1703082;82;21535;-68
2021/08/25 00:22:50;;;;;;;24.35;14.58;;;;;;;18.95;78.39;99396.22;1702982;84;21008;-68
2021/08/25 00:25:16;;;;;;;22.65;14.53;;;;;;;18.95;78.31;99406.77;1703150;84;21017;-68
2021/08/25 00:27:43;;;;;;;19.45;13.62;;;;;;;18.97;78.23;99407.20;1701201;84;21094;-69
2021/08/25 00:30:11;;;;;;;22.55;13.15;;;;;;;18.98;78.12;99410.22;1702697;84;21004;-68
2021/08/25 00:32:37;;;;;;;20.55;13.40;;;;;;;18.98;78.07;99406.62;1702957;82;21405;-68
2021/08/25 00:35:04;;;;;;;19.62;13.45;;;;;;;18.98;78.11;99411.62;1682485;84;21025;-68
2021/08/25 00:37:30;;;;;;;20.00;12.98;;;;;;;19.01;78.17;99414.81;1703283;84;21036;-70
2021/08/25 00:39:57;;;;;;;18.10;12.45;;;;;;;19.01;78.19;99412.83;1702701;84;21870;-68
2021/08/25 00:42:24;;;;;;;19.42;12.30;;;;;;;19.01;78.23;99418.41;1702566;82;21060;-67
2021/08/25 00:44:51;;;;;;;22.65;12.73;;;;;;;19.01;78.21;99410.62;1702731;84;21076;-68
2021/08/25 00:47:17;;;;;;;21.45;13.25;;;;;;;18.96;78.29;99408.39;1699869;84;21489;-67
2021/08/25 00:49:46;;;;;;;16.32;10.43;;;;;;;18.92;78.32;99401.17;1695765;84;21017;-67
2021/08/25 00:52:14;;;;;;;21.00;11.45;;;;;;;18.90;78.44;99409.11;1695425;84;21033;-67
2021/08/25 00:54:40;;;;;;;19.02;10.58;;;;;;;18.88;78.54;99420.66;1695577;84;21534;-68
2021/08/25 00:57:09;;;;;;;20.75;11.50;;;;;;;18.88;78.68;99426.24;1695767;84;21867;-69
2021/08/25 00:59:36;;;;;;;16.70;11.43;;;;;;;18.88;78.65;99424.03;1691579;84;21501;-68
2021/08/25 01:02:24;;;;;;;19.95;11.73;;;;;;;18.88;78.81;99429.03;1695230;84;21552;-69
2021/08/25 01:04:57;;;;;;;18.75;11.22;;;;;;;18.89;78.81;99420.86;1696814;83;21080;-67
2021/08/25 01:07:26;;;;;;;22.77;13.72;;;;;;;18.88;78.85;99416.48;1695280;84;21052;-68
2021/08/25 01:09:53;;;;;;;22.58;12.78;;;;;;;18.87;78.95;99424.62;1695736;84;21024;-68
2021/08/25 01:12:21;;;;;;;20.45;13.03;;;;;;;18.87;78.98;99413.45;1695635;84;21058;-68
2021/08/25 01:14:49;;;;;;;18.15;11.75;;;;;;;18.83;78.96;99400.06;1695694;84;21517;-68
2021/08/25 01:17:23;;;;;;;20.17;11.55;;;;;;;18.80;79.06;99390.45;1695541;84;21167;-68
2021/08/25 01:20:11;;;;;;;19.40;11.83;;;;;;;18.80;79.20;99386.27;1695860;84;21005;-68
2021/08/25 01:22:41;;;;;;;19.57;11.12;;;;;;;18.80;79.31;99399.43;1695272;84;22911;-68
2021/08/25 01:25:08;;;;;;;22.07;12.78;;;;;;;18.81;79.28;99401.03;1695580;84;21136;-67
2021/08/25 01:27:49;;;;;;;17.87;11.80;;;;;;;18.77;79.17;99385.63;1664065;86;21116;-68
2021/08/25 01:30:16;;;;;;;19.23;11.70;;;;;;;18.65;79.29;99389.47;1652440;86;21156;-67
2021/08/25 01:32:42;;;;;;;16.23;11.25;;;;;;;18.61;79.58;99387.23;1696007;84;21032;-68
2021/08/25 01:35:12;;;;;;;20.50;12.93;;;;;;;18.58;79.61;99383.20;1673658;84;21021;-67
2021/08/25 01:37:38;;;;;;;15.35;11.18;;;;;;;18.58;79.74;99378.20;1692042;84;21044;-69
2021/08/25 01:40:07;;;;;;;16.37;11.20;;;;;;;18.58;79.67;99378.20;1695506;84;21561;-67
2021/08/25 01:42:35;;;;;;;18.10;10.95;;;;;;;18.57;79.71;99373.23;1695215;84;21554;-67
2021/08/25 01:45:01;;;;;;;15.40;10.30;;;;;;;18.57;79.77;99372.42;1695329;84;21056;-67
2021/08/25 01:47:28;;;;;;;16.80;10.72;;;;;;;18.58;79.86;99369.84;1695633;84;21564;-68
2021/08/25 01:49:54;;;;;;;16.20;11.05;;;;;;;18.59;79.80;99364.48;1673234;84;21151;-67
2021/08/25 01:52:22;;;;;;;20.05;11.90;;;;;;;18.47;79.80;99363.55;1696083;84;21020;-70
2021/08/25 01:54:52;;;;;;;16.20;12.73;;;;;;;18.33;80.22;99367.52;1695609;84;21053;-68
2021/08/25 01:57:19;;;;;;;16.02;11.28;;;;;;;18.27;80.71;99363.47;1695856;84;21398;-66
2021/08/25 01:59:46;;;;;;;17.75;12.07;;;;;;;18.27;80.87;99357.27;1673333;84;21517;-67
2021/08/25 02:02:13;;;;;;;18.37;10.18;;;;;;;18.31;80.90;99353.15;1695752;84;21104;-68
2021/08/25 02:04:41;;;;;;;17.42;10.50;;;;;;;18.33;80.81;99351.61;1691803;84;21504;-68
2021/08/25 02:07:07;;;;;;;13.43;9.80;;;;;;;18.37;80.80;99350.27;1695952;84;21081;-68
2021/08/25 02:09:33;;;;;;;14.60;10.05;;;;;;;18.40;80.75;99343.11;1699580;83;21057;-67
2021/08/25 02:12:00;;;;;;;19.75;10.55;;;;;;;18.42;80.77;99340.17;1674343;84;21098;-68
2021/08/25 02:14:26;;;;;;;14.65;10.65;;;;;;;18.46;80.72;99341.59;1673724;84;21561;-68
2021/08/25 02:16:52;;;;;;;17.25;11.03;;;;;;;18.47;80.54;99332.88;1695794;84;21051;-68
2021/08/25 02:19:19;;;;;;;17.07;10.78;;;;;;;18.49;80.42;99330.48;1695154;84;21128;-68
2021/08/25 02:21:45;;;;;;;13.60;9.98;;;;;;;18.50;80.31;99331.30;1695874;84;21111;-68
2021/08/25 02:24:13;;;;;;;23.65;12.20;;;;;;;18.52;80.26;99328.94;1695576;84;21095;-68
2021/08/25 02:26:40;;;;;;;14.38;10.23;;;;;;;18.49;80.19;99331.09;1691316;84;20996;-68
2021/08/25 02:29:06;;;;;;;12.98;9.83;;;;;;;18.41;80.23;99334.36;1661211;84;21002;-68
2021/08/25 02:31:33;;;;;;;14.35;9.33;;;;;;;18.37;80.35;99332.14;1695440;84;21724;-68
2021/08/25 02:33:59;;;;;;;20.82;10.30;;;;;;;18.38;80.52;99329.55;1695670;84;21513;-68
2021/08/25 02:36:25;;;;;;;20.12;9.68;;;;;;;18.39;80.45;99331.75;1695512;84;21088;-67
2021/08/25 02:38:52;;;;;;;12.47;8.70;;;;;;;18.37;80.42;99324.55;1695629;84;21043;-70
2021/08/25 02:41:19;;;;;;;12.07;8.93;;;;;;;18.37;80.53;99319.59;1695853;84;21611;-67
2021/08/25 02:43:46;;;;;;;14.47;9.50;;;;;;;18.40;80.66;99309.64;1695632;84;21161;-67
2021/08/25 02:46:13;;;;;;;14.15;9.63;;;;;;;18.42;80.58;99312.28;1695517;84;21048;-68
2021/08/25 02:48:41;;;;;;;16.55;10.00;;;;;;;18.45;80.42;99314.89;1695343;84;21516;-68
2021/08/25 02:51:08;;;;;;;14.18;8.93;;;;;;;18.44;80.28;99320.27;1695791;84;21037;-68
2021/08/25 02:53:34;;;;;;;15.03;9.20;;;;;;;18.42;80.26;99315.08;1695640;84;21603;-67
2021/08/25 02:56:01;;;;;;;16.55;9.25;;;;;;;18.40;80.24;99312.44;1695590;84;21103;-68
2021/08/25 02:58:27;;;;;;;15.03;9.63;;;;;;;18.40;80.32;99320.22;1673550;84;21010;-67
2021/08/25 03:00:54;;;;;;;12.15;8.60;;;;;;;18.39;80.31;99311.62;1696044;84;21013;-66
2021/08/25 03:03:21;;;;;;;12.65;8.00;;;;;;;18.35;80.49;99305.21;1695777;84;21032;-67
2021/08/25 03:05:47;;;;;;;15.43;9.10;;;;;;;18.36;80.47;99312.38;1695802;84;21072;-68
2021/08/25 03:08:14;;;;;;;13.72;9.05;;;;;;;18.37;80.38;99308.44;1695304;84;22002;-67
2021/08/25 03:10:40;;;;;;;14.28;10.38;;;;;;;18.39;80.44;99322.78;1673194;84;21049;-68
2021/08/25 03:13:07;;;;;;;13.53;8.80;;;;;;;18.37;80.29;99319.59;1673391;84;21546;-67
2021/08/25 03:15:34;;;;;;;16.73;9.68;;;;;;;18.35;80.43;99326.12;1695631;84;21032;-67
2021/08/25 03:18:01;;;;;;;15.20;9.28;;;;;;;18.35;80.38;99313.58;1695697;83;21020;-67
2021/08/25 03:20:27;;;;;;;12.65;8.58;;;;;;;18.36;80.35;99322.95;1696073;84;21786;-67
2021/08/25 03:22:54;;;;;;;11.83;8.75;;;;;;;18.39;80.30;99320.60;1695402;84;21062;-67
2021/08/25 03:25:20;;;;;;;15.85;9.30;;;;;;;18.41;80.14;99314.06;1692684;84;21541;-68
2021/08/25 03:27:47;;;;;;;11.90;9.30;;;;;;;18.41;80.15;99316.85;1695683;83;21031;-67
2021/08/25 03:30:14;;;;;;;14.15;8.68;;;;;;;18.41;80.24;99317.63;1695601;84;21130;-67
2021/08/25 03:32:41;;;;;;;12.35;8.40;;;;;;;18.44;80.06;99317.48;1695251;84;21550;-67
2021/08/25 03:35:09;;;;;;;11.95;7.75;;;;;;;18.44;79.90;99319.66;1673094;84;21067;-67
2021/08/25 03:37:38;;;;;;;12.37;7.62;;;;;;;18.44;79.54;99329.42;1695345;84;21075;-68
2021/08/25 03:40:07;;;;;;;13.15;8.18;;;;;;;18.39;79.70;99328.36;1673726;84;21017;-67
2021/08/25 03:42:34;;;;;;;14.78;8.18;;;;;;;18.38;79.79;99326.77;1695473;84;21021;-68
2021/08/25 03:45:00;;;;;;;13.45;8.90;;;;;;;18.33;79.83;99325.70;1695810;84;21612;-68
2021/08/25 03:47:26;;;;;;;17.50;8.55;;;;;;;18.29;79.99;99320.67;1696365;82;21080;-68
2021/08/25 03:49:53;;;;;;;15.53;8.68;;;;;;;18.23;80.15;99322.40;1703151;84;21028;-68
2021/08/25 03:52:20;;;;;;;15.20;8.08;;;;;;;18.20;80.34;99330.71;1703090;84;21533;-69
2021/08/25 03:54:48;;;;;;;15.13;9.30;;;;;;;18.15;80.66;99330.42;1703785;84;21047;-68
2021/08/25 03:57:14;;;;;;;11.00;8.00;;;;;;;18.13;80.75;99325.23;1703055;84;21150;-68
2021/08/25 03:59:40;;;;;;;13.55;8.25;;;;;;;18.13;80.99;99329.41;1703316;84;21502;-68
2021/08/25 04:02:07;;;;;;;17.07;10.00;;;;;;;18.16;81.16;99326.47;1703099;82;21081;-70
2021/08/25 04:04:33;;;;;;;12.15;9.23;;;;;;;18.20;81.21;99323.13;1672685;84;21560;-68
2021/08/25 04:07:00;;;;;;;16.35;9.75;;;;;;;18.22;81.19;99320.77;1703261;84;20996;-68
2021/08/25 04:09:28;;;;;;;14.38;8.35;;;;;;;18.22;81.26;99327.74;1699766;84;21065;-68
2021/08/25 04:11:56;;;;;;;13.62;8.68;;;;;;;18.22;81.30;99327.74;1702911;84;21080;-70
2021/08/25 04:14:23;;;;;;;12.05;8.53;;;;;;;18.24;81.27;99328.17;1703480;84;21035;-68
2021/08/25 04:16:51;;;;;;;17.73;8.90;;;;;;;18.24;81.38;99321.79;1703414;82;21077;-68
2021/08/25 04:19:18;;;;;;;16.60;9.60;;;;;;;18.23;81.48;99323.80;1703598;84;21028;-68
2021/08/25 04:21:47;;;;;;;15.45;9.45;;;;;;;18.25;81.63;99319.23;1673079;84;21047;-68
2021/08/25 04:24:14;;;;;;;13.18;9.80;;;;;;;18.31;81.74;99315.50;1702857;84;21520;-68
2021/08/25 04:26:40;;;;;;;14.70;8.95;;;;;;;18.34;81.73;99306.38;1703101;84;21077;-68
2021/08/25 04:29:07;;;;;;;14.15;8.98;;;;;;;18.39;81.87;99307.44;1699889;84;21537;-68
2021/08/25 04:31:33;;;;;;;13.05;8.78;;;;;;;18.45;81.88;99310.13;1672954;84;21111;-69
2021/08/25 04:34:02;;;;;;;14.70;9.75;;;;;;;18.50;81.95;99299.22;1703084;84;21188;-68
2021/08/25 04:36:28;;;;;;;11.38;7.75;;;;;;;18.56;81.96;99301.88;1672731;84;20992;-68
2021/08/25 04:38:57;;;;;;;13.22;8.70;;;;;;;18.62;81.90;99306.53;1703160;84;21568;-68
2021/08/25 04:41:25;;;;;;;15.55;10.45;;;;;;;18.67;81.96;99303.98;1703199;84;21551;-69
2021/08/25 04:43:55;;;;;;;14.47;10.03;;;;;;;18.71;81.65;99302.84;1703380;84;21092;-68
2021/08/25 04:46:22;;;;;;;16.32;10.75;;;;;;;18.69;81.58;99303.84;1703463;84;21583;-69
2021/08/25 04:48:48;;;;;;;14.73;10.93;;;;;;;18.71;81.70;99298.66;1699319;81;21021;-69
2021/08/25 04:51:14;;;;;;;14.18;10.68;;;;;;;18.76;81.77;99300.91;1695565;84;21115;-70
2021/08/25 04:53:41;;;;;;;13.38;10.30;;;;;;;18.82;81.57;99302.97;1695706;84;21029;-69
2021/08/25 04:56:07;;;;;;;12.95;9.25;;;;;;;18.88;81.38;99306.81;1669838;84;21057;-69
2021/08/25 04:58:35;;;;;;;16.82;11.15;;;;;;;18.90;81.18;99302.44;1695673;84;21121;-70
2021/08/25 05:01:03;;;;;;;23.02;12.05;;;;;;;18.95;81.05;99310.47;1695832;84;21498;-69
2021/08/25 05:03:30;;;;;;;15.63;11.57;;;;;;;19.00;80.93;99305.74;1695442;84;21478;-69
2021/08/25 05:05:58;;;;;;;16.57;10.70;;;;;;;19.02;80.95;99303.38;1695738;84;20997;-69
2021/08/25 05:08:27;;;;;;;17.30;12.00;;;;;;;19.05;80.77;99302.61;1695795;84;21016;-68
2021/08/25 05:10:53;;;;;;;17.00;12.58;;;;;;;19.07;80.40;99303.81;1695470;84;21557;-67
2021/08/25 05:13:20;;;;;;;18.07;12.70;;;;;;;19.09;80.11;99302.03;1695468;84;21052;-69
2021/08/25 05:15:46;;;;;;;17.50;12.40;;;;;;;19.09;79.90;99307.62;1695912;84;21552;-68
2021/08/25 05:18:13;;;;;;;17.52;13.45;;;;;;;19.08;79.92;99303.23;1673628;84;21636;-69
2021/08/25 05:20:39;;;;;;;17.27;12.78;;;;;;;19.11;79.79;99301.70;1631126;85;21123;-70
2021/08/25 05:23:06;;;;;;;17.85;13.60;;;;;;;19.14;79.71;99299.54;1665542;85;21735;-69
2021/08/25 05:25:32;;;;;;;21.17;13.10;;;;;;;19.15;79.64;99299.73;1666000;85;21486;-69
2021/08/25 05:27:59;;;;;;;23.75;15.68;;;;;;;19.17;79.49;99301.55;1681743;85;21040;-69
2021/08/25 05:30:25;;;;;;;18.80;13.72;;;;;;;19.17;79.33;99296.78;1684386;85;21509;-69
2021/08/25 05:32:52;;;;;;;21.50;14.25;;;;;;;19.21;79.20;99305.17;1666458;84;21525;-68
2021/08/25 05:35:19;;;;;;;16.97;12.25;;;;;;;19.24;79.03;99296.63;1683291;85;21616;-67
2021/08/25 05:37:48;;;;;;;20.72;14.25;;;;;;;19.27;79.06;99297.25;1684464;83;21510;-68
2021/08/25 05:40:18;;;;;;;22.62;15.18;;;;;;;19.29;79.08;99296.28;1691842;83;21140;-68
2021/08/25 05:42:45;;;;;;;20.92;14.95;;;;;;;19.30;79.06;99294.50;1688812;82;21017;-68
2021/08/25 05:45:12;;;;;;;17.42;14.30;;;;;;;19.33;78.85;99292.91;1685352;83;21014;-69
2021/08/25 05:47:39;;;;;;;20.82;14.58;;;;;;;19.34;78.73;99298.72;1690886;83;21272;-68
2021/08/25 05:50:06;;;;;;;22.80;14.45;;;;;;;19.34;78.67;99293.91;1689583;82;21552;-69
2021/08/25 05:52:33;;;;;;;20.15;14.07;;;;;;;19.37;78.56;99290.15;1661486;85;21064;-68
2021/08/25 05:55:05;;;;;;;20.90;14.38;;;;;;;19.39;78.59;99289.98;1701539;84;21064;-68
2021/08/25 05:57:31;;;;;;;17.67;13.00;;;;;;;19.44;78.76;99290.22;1707086;84;21059;-69
2021/08/25 05:59:58;;;;;;;17.82;13.95;;;;;;;19.48;78.56;99291.65;1708099;84;21700;-67
2021/08/25 06:02:25;;;;;;;21.52;13.48;;;;;;;19.53;78.46;99292.08;1704376;84;21072;-68
2021/08/25 06:04:51;;;;;;;20.75;14.07;;;;;;;19.56;78.22;99277.35;1707897;84;21484;-68
2021/08/25 06:07:18;;;;;;;17.37;12.90;;;;;;;19.61;78.14;99281.77;1708291;84;21016;-68
2021/08/25 06:09:44;;;;;;;22.85;12.65;;;;;;;19.65;78.15;99290.97;1708372;84;21079;-68
2021/08/25 06:12:10;;;;;;;15.32;10.90;;;;;;;19.69;78.00;99286.22;1701760;84;21532;-68
2021/08/25 06:14:38;;;;;;;18.00;11.43;;;;;;;19.73;77.49;99286.83;1707351;82;21129;-69
2021/08/25 06:17:05;;;;;;;15.72;11.18;;;;;;;19.78;77.13;99286.47;1707121;83;21627;-69
2021/08/25 06:19:32;;;;;;;17.80;11.95;;;;;;;19.82;77.09;99291.50;1708484;84;21064;-69
2021/08/25 06:21:59;;;;;;;22.02;14.30;;;;;;;19.87;76.94;99283.34;1711444;82;21020;-68
2021/08/25 06:24:25;;;;;;;16.35;11.97;;;;;;;19.97;76.96;99286.80;1708940;82;22090;-68
2021/08/25 06:26:52;;;;;;;19.87;13.80;;;;;;;20.09;76.72;99287.09;1709416;82;21032;-69
2021/08/25 06:29:18;;;;;;;21.95;12.40;;;;;;;20.25;76.41;99290.17;1680529;84;21035;-69
2021/08/25 06:31:45;;;;;;;18.73;12.82;;;;;;;20.39;76.13;99293.02;1709652;82;21120;-68
2021/08/25 06:34:12;;;;;;;23.05;12.82;;;;;;;20.52;75.31;99280.88;1708572;82;21023;-68
2021/08/25 06:36:39;;;;;;;18.90;13.75;;;;;;;20.66;74.96;99281.53;1705567;82;22053;-69
2021/08/25 06:39:05;;;;;;;21.00;13.28;;;;;;;20.79;74.25;99283.97;1681910;84;21733;-69
2021/08/25 06:41:32;;;;;;;19.35;14.18;;;;;;;20.87;74.09;99288.38;1707915;84;21602;-67
2021/08/25 06:43:59;;;;;;;21.00;14.30;;;;;;;20.95;73.87;99290.62;1707724;84;21111;-69
2021/08/25 06:46:25;;;;;;;19.82;14.40;;;;;;;21.00;73.38;99294.42;1679968;83;21094;-67
2021/08/25 06:48:52;;;;;;;21.65;14.00;;;;;;;21.01;72.85;99298.84;1707043;82;21565;-69
2021/08/25 06:51:18;;;;;;;19.48;15.18;;;;;;;21.02;72.66;99292.63;1694583;84;21052;-68
2021/08/25 06:53:45;;;;;;;22.50;14.25;;;;;;;21.06;72.65;99298.23;1694876;84;21493;-68
2021/08/25 06:56:12;;;;;;;23.10;15.10;;;;;;;21.09;72.99;99295.45;1691040;84;21116;-68
2021/08/25 06:58:38;;;;;;;30.60;16.35;;;;;;;21.18;72.98;99297.05;1667111;84;21127;-69
2021/08/25 07:01:05;;;;;;;21.80;13.85;;;;;;;21.26;72.50;99302.86;1694663;84;21188;-69
2021/08/25 07:03:31;;;;;;;20.05;14.03;;;;;;;21.28;71.60;99304.67;1691123;84;21474;-68
2021/08/25 07:05:59;;;;;;;19.48;13.15;;;;;;;21.27;71.48;99304.48;1695051;84;21510;-69
2021/08/25 07:08:26;;;;;;;19.95;14.28;;;;;;;21.21;71.38;99311.06;1698732;83;21048;-69
2021/08/25 07:10:53;;;;;;;17.00;12.63;;;;;;;21.16;71.49;99314.26;1693766;83;21107;-67
2021/08/25 07:13:19;;;;;;;20.45;12.47;;;;;;;21.15;71.45;99323.88;1679359;83;21059;-68
2021/08/25 07:15:45;;;;;;;22.62;13.38;;;;;;;21.08;71.16;99320.46;1695956;83;21032;-69
2021/08/25 07:18:12;;;;;;;19.37;11.90;;;;;;;21.06;71.63;99322.85;1695019;84;21060;-68
2021/08/25 07:20:38;;;;;;;18.98;13.13;;;;;;;21.01;71.42;99318.45;1695826;83;21028;-68
2021/08/25 07:23:05;;;;;;;21.97;12.23;;;;;;;20.97;71.65;99315.41;1697278;83;21048;-68
2021/08/25 07:25:32;;;;;;;21.80;12.63;;;;;;;20.96;71.77;99317.44;1692230;83;22643;-68
2021/08/25 07:27:59;;;;;;;17.30;12.33;;;;;;;20.92;71.91;99318.80;1721808;83;21438;-68
2021/08/25 07:30:25;;;;;;;19.48;13.40;;;;;;;20.87;71.96;99316.97;1722050;83;21516;-67
2021/08/25 07:32:53;;;;;;;24.67;13.65;;;;;;;20.80;71.85;99319.15;1713293;83;21028;-67
2021/08/25 07:35:20;;;;;;;29.45;13.98;;;;;;;20.75;72.24;99318.13;1711535;83;21568;-68
2021/08/25 07:37:51;;;;;;;21.30;13.10;;;;;;;20.67;72.36;99316.73;1690385;83;21037;-68
2021/08/25 07:40:19;;;;;;;19.65;12.65;;;;;;;20.60;72.67;99315.30;1666361;84;21073;-69
2021/08/25 07:42:45;;;;;;;20.10;11.05;;;;;;;20.54;72.96;99321.05;1716874;83;21068;-69
2021/08/25 07:45:12;;;;;;;23.62;13.62;;;;;;;20.44;73.08;99317.02;1676401;83;21054;-66
2021/08/25 07:47:39;;;;;;;19.00;12.58;;;;;;;20.39;73.58;99305.61;1704622;83;21596;-69
2021/08/25 07:50:07;;;;;;;26.68;14.60;;;;;;;20.38;74.04;99307.41;1695506;83;21110;-68
2021/08/25 07:52:33;;;;;;;28.95;16.35;;;;;;;20.37;74.41;99309.39;1696495;83;21044;-70
2021/08/25 07:55:00;;;;;;;22.32;15.63;;;;;;;20.39;74.77;99311.80;1705733;82;21046;-69
2021/08/25 07:57:26;;;;;;;25.48;16.07;;;;;;;20.40;75.08;99317.00;1698577;82;21036;-69
2021/08/25 07:59:54;;;;;;;23.80;15.65;;;;;;;20.37;75.06;99313.59;1699644;83;21055;-68
2021/08/25 08:02:21;;;;;;;24.12;15.23;;;;;;;20.38;75.42;99318.01;1702338;83;21187;-68
2021/08/25 08:04:49;;;;;;;24.80;14.43;;;;;;;20.41;75.47;99316.41;1703185;83;21060;-67
2021/08/25 08:07:18;;;;;;;38.85;16.00;;;;;;;20.41;75.01;99311.62;1676415;83;21553;-67
2021/08/25 08:09:45;;;;;;;28.27;15.25;;;;;;;20.43;75.28;99309.24;1699013;83;21069;-67
2021/08/25 08:12:13;;;;;;;27.62;15.58;;;;;;;20.46;75.56;99311.84;1688208;82;21076;-66
2021/08/25 08:14:42;;;;;;;22.40;14.63;;;;;;;20.47;75.55;99311.25;1694427;84;21024;-68
2021/08/25 08:17:10;;;;;;;27.07;16.05;;;;;;;20.45;75.38;99317.23;1694400;83;21597;-68
2021/08/25 08:19:38;;;;;;;22.22;14.45;;;;;;;20.41;75.45;99316.41;1690074;83;21064;-69
2021/08/25 08:22:05;;;;;;;21.87;15.13;;;;;;;20.39;75.59;99321.00;1694225;84;21060;-69
2021/08/25 08:24:31;;;;;;;29.12;16.75;;;;;;;20.40;75.64;99313.41;1672979;84;21016;-68
2021/08/25 08:27:00;;;;;;;26.45;16.23;;;;;;;20.40;75.68;99316.22;1694365;84;21056;-68
2021/08/25 08:29:28;;;;;;;29.23;18.05;;;;;;;20.37;75.49;99312.19;1694652;84;21041;-67
2021/08/25 08:31:54;;;;;;;26.02;16.42;;;;;;;20.37;75.84;99305.81;1694194;83;21084;-68
2021/08/25 08:34:21;;;;;;;24.75;16.48;;;;;;;20.44;76.16;99314.22;1695302;84;21031;-68
2021/08/25 08:36:47;;;;;;;23.27;15.18;;;;;;;20.57;76.43;99306.88;1694906;84;21116;-68
2021/08/25 08:39:14;;;;;;;23.80;16.67;;;;;;;20.70;76.01;99297.52;1694627;84;22219;-70
2021/08/25 08:41:42;;;;;;;34.48;17.90;;;;;;;20.80;75.48;99293.95;1694659;84;21021;-68
2021/08/25 08:44:15;;;;;;;23.32;16.02;;;;;;;20.86;75.04;99293.79;1672859;83;21636;-68
2021/08/25 08:46:44;;;;;;;20.10;13.32;;;;;;;20.90;74.96;99295.98;1693480;83;21301;-67
2021/08/25 08:49:13;;;;;;;17.85;13.40;;;;;;;20.98;74.99;99298.84;1698954;82;21230;-69
2021/08/25 08:51:43;;;;;;;19.30;13.32;;;;;;;21.02;73.96;99303.83;1657290;84;21128;-67
2021/08/25 08:54:12;;;;;;;19.48;13.13;;;;;;;21.01;73.74;99305.04;1679327;84;21131;-67
2021/08/25 08:56:39;;;;;;;18.52;13.43;;;;;;;20.98;73.57;99296.03;1707580;84;21056;-69
2021/08/25 08:59:06;;;;;;;25.12;15.23;;;;;;;20.96;73.75;99300.64;1707884;82;21088;-68
2021/08/25 09:01:34;;;;;;;17.30;12.70;;;;;;;20.97;73.76;99299.42;1707906;84;21548;-68
2021/08/25 09:04:00;;;;;;;16.15;12.58;;;;;;;21.01;73.80;99298.84;1703840;84;22097;-69
2021/08/25 09:06:44;;;;;;;18.42;12.30;;;;;;;21.06;73.69;99293.45;1703463;82;21048;-69
2021/08/25 09:09:10;;;;;;;14.65;11.03;;;;;;;21.11;73.55;99289.45;1700903;84;21111;-70
2021/08/25 09:11:51;;;;;;;15.43;10.85;;;;;;;21.19;73.40;99283.27;1700565;84;20993;-70
2021/08/25 09:14:20;;;;;;;20.57;11.33;;;;;;;21.26;73.20;99287.45;1703843;84;21059;-71
2021/08/25 09:16:46;;;;;;;14.53;10.43;;;;;;;21.32;72.77;99280.27;1675468;84;21058;-69
2021/08/25 09:19:17;;;;;;;12.60;9.90;;;;;;;21.38;72.45;99280.06;1704129;84;21012;-68
2021/08/25 09:21:49;;;;;;;11.70;10.05;;;;;;;21.46;72.22;99281.47;1707294;82;21092;-67
2021/08/25 09:24:22;;;;;;;14.63;10.48;;;;;;;21.56;72.25;99280.67;1696867;82;21092;-67
2021/08/25 09:27:20;;;;;;;15.53;10.88;;;;;;;21.65;72.02;99282.45;1706067;82;21101;-69
2021/08/25 09:29:44;;;;;;;13.43;10.23;;;;;;;21.78;72.08;99287.64;1705299;82;21083;-68
2021/08/25 09:32:22;;;;;;;11.80;10.25;;;;;;;21.94;71.32;99283.65;1679792;82;22340;-68
2021/08/25 09:34:59;;;;;;;11.88;9.78;;;;;;;22.05;70.56;99273.78;1712472;82;21296;-68
2021/08/25 09:37:27;;;;;;;18.77;10.75;;;;;;;22.15;70.40;99274.36;1709789;82;21013;-68
2021/08/25 09:39:59;;;;;;;15.23;11.00;;;;;;;22.27;70.09;99277.33;1706943;82;21059;-68
2021/08/25 09:42:31;;;;;;;;;;;;;;;22.34;69.42;99266.08;1710251;82;21071;-70
2021/08/25 09:45:07;;;;;;;13.48;9.73;;;;;;;22.43;68.74;99260.63;1709528;82;20202;-70
2021/08/25 09:47:49;;;;;;;15.23;9.88;;;;;;;22.45;68.23;99264.61;1712847;82;21099;-69
2021/08/25 09:50:18;;;;;;;12.07;8.93;;;;;;;22.42;67.70;99261.22;1711647;82;21025;-68
2021/08/25 09:52:44;;;;;;;16.17;10.30;;;;;;;22.38;67.78;99262.64;1712989;82;21091;-68
2021/08/25 09:55:12;;;;;;;12.28;9.68;;;;;;;22.31;67.92;99257.67;1713974;82;21076;-68
2021/08/25 09:57:43;;;;;;;14.18;10.23;;;;;;;22.16;68.29;99263.33;1716206;82;21024;-68
2021/08/25 10:00:12;;;;;;;14.45;10.65;;;;;;;22.06;68.62;99266.37;1720253;82;21017;-70
2021/08/25 10:02:40;;;;;;;15.23;10.45;;;;;;;21.96;68.86;99260.99;1691398;82;21056;-67
2021/08/25 10:05:09;;;;;;;12.40;9.83;;;;;;;21.90;69.30;99254.20;1716972;82;21001;-66
2021/08/25 10:07:36;;;;;;;16.73;10.38;;;;;;;21.91;69.89;99240.38;1708194;82;21814;-67
2021/08/25 10:10:05;;;;;;;17.50;10.85;;;;;;;22.01;69.92;99240.95;1703285;84;21298;-67
2021/08/25 10:12:32;;;;;;;18.92;10.82;;;;;;;22.11;69.77;99243.52;1703411;84;21072;-69
2021/08/25 10:14:58;;;;;;;21.27;9.88;;;;;;;22.20;69.45;99247.30;1703604;84;21107;-67
2021/08/25 10:17:41;;;;;;;14.40;10.63;;;;;;;22.36;69.60;99250.23;1702595;84;21052;-68
2021/08/25 10:20:33;;;;;;;15.90;10.13;;;;;;;22.55;68.63;99236.32;1700962;84;22004;-67
2021/08/25 10:22:59;;;;;;;15.35;10.05;;;;;;;22.67;67.95;99237.86;1698939;84;22221;-68
2021/08/25 10:25:27;;;;;;;13.72;9.85;;;;;;;22.69;67.52;99229.83;1702998;84;21039;-68
2021/08/25 10:28:08;;;;;;;14.13;9.95;;;;;;;22.65;67.95;99232.47;1703364;84;21047;-68
2021/08/25 10:30:55;;;;;;;10.88;9.08;;;;;;;22.65;68.01;99234.69;1675404;84;21579;-68
2021/08/25 10:33:21;;;;;;;14.75;9.53;;;;;;;22.69;68.05;99232.64;1703657;84;21151;-68
2021/08/25 10:35:48;;;;;;;12.33;7.80;;;;;;;22.76;67.75;99231.02;1702964;84;22124;-68
2021/08/25 10:38:19;;;;;;;12.28;8.35;;;;;;;22.83;67.11;99230.34;1674942;84;21079;-69
2021/08/25 10:40:47;;;;;;;13.32;9.23;;;;;;;22.88;66.35;99226.30;1679668;84;21059;-68
2021/08/25 10:43:42;;;;;;;14.00;9.03;;;;;;;22.90;65.67;99218.27;1675092;84;21080;-68
2021/08/25 10:46:17;;;;;;;9.28;7.70;;;;;;;22.88;65.81;99222.09;1702858;82;21089;-69
2021/08/25 10:48:53;;;;;;;13.62;9.48;;;;;;;22.87;66.48;99217.69;1702229;84;21520;-70
2021/08/25 10:51:27;;;;;;;13.00;8.90;;;;;;;22.89;66.20;99207.45;1672495;84;21524;-67
2021/08/25 10:53:53;;;;;;;12.55;8.60;;;;;;;22.84;65.68;99199.64;1698161;84;21041;-68
2021/08/25 10:56:41;;;;;;;12.68;8.10;;;;;;;22.81;65.96;99194.86;1665931;83;21076;-68
2021/08/25 10:59:10;;;;;;;10.88;7.30;;;;;;;22.86;66.45;99191.61;1697245;84;21184;-69
2021/08/25 11:01:39;;;;;;;9.90;7.72;;;;;;;22.95;65.84;99186.13;1698214;83;21029;-69
2021/08/25 11:04:20;;;;;;;9.78;7.05;;;;;;;23.05;66.04;99190.86;1697559;84;21127;-67
2021/08/25 11:06:56;;;;;;;13.03;7.40;;;;;;;23.14;65.16;99193.20;1697595;84;21056;-68
2021/08/25 11:09:33;;;;;;;9.75;6.97;;;;;;;23.21;64.32;99191.74;1676093;84;21063;-67
2021/08/25 11:12:12;;;;;;;6.33;5.25;;;;;;;23.34;64.64;99184.18;1677343;84;21557;-69
2021/08/25 11:14:55;;;;;;;6.92;6.20;;;;;;;23.50;63.83;99185.67;1694050;84;21016;-70
2021/08/25 11:17:29;;;;;;;7.80;6.20;;;;;;;23.66;62.33;99182.30;1696288;82;21067;-68
2021/08/25 11:20:00;;;;;;;10.05;6.33;;;;;;;23.75;61.48;99176.95;1697450;84;21064;-69
2021/08/25 11:22:35;;;;;;;9.38;6.17;;;;;;;23.76;61.01;99179.98;1697683;83;21056;-69
2021/08/25 11:25:14;;;;;;;9.33;6.75;;;;;;;23.70;60.89;99176.02;1696628;83;21731;-68